createdAt,value
2023-01-03T00:01:32.015Z,0.50
2023-01-03T00:04:02.109Z,0.40
2023-01-03T00:06:33.065Z,0.40
2023-01-03T00:09:03.133Z,0.63
2023-01-03T00:11:52.703Z,0.50
2023-01-03T00:14:24.481Z,0.60
2023-01-03T00:16:56.805Z,0.40
2023-01-03T00:19:28.230Z,0.30
2023-01-03T00:21:57.920Z,0.50
2023-01-03T00:26:55.055Z,0.50
2023-01-03T00:29:23.040Z,0.50
2023-01-03T00:31:51.079Z,0.40
2023-01-03T00:34:19.344Z,0.57
2023-01-03T00:36:47.415Z,0.50
2023-01-03T00:39:15.518Z,0.60
2023-01-03T00:41:43.876Z,0.30
2023-01-03T00:44:13.849Z,0.50
2023-01-03T00:46:43.402Z,0.40
2023-01-03T00:49:12.385Z,0.40
2023-01-03T00:51:42.390Z,0.60
2023-01-03T00:54:12.449Z,0.60
2023-01-03T00:56:43.351Z,0.50
2023-01-03T00:59:14.366Z,0.43
2023-01-03T01:01:47.631Z,0.52
2023-01-03T01:04:19.517Z,0.50
2023-01-03T01:06:50.330Z,0.60
2023-01-03T01:09:22.219Z,0.50
2023-01-03T01:11:50.813Z,0.50
2023-01-03T01:14:25.071Z,0.70
2023-01-03T01:16:55.991Z,0.57
2023-01-03T01:19:28.418Z,0.50
2023-01-03T01:21:56.597Z,0.50
2023-01-03T01:24:25.012Z,0.50
2023-01-03T01:26:53.791Z,0.50
2023-01-03T01:29:23.888Z,0.60
2023-01-03T01:31:52.304Z,0.60
2023-01-03T01:34:20.682Z,0.50
2023-01-03T01:36:49.389Z,0.60
2023-01-03T01:39:20.845Z,0.65
2023-01-03T01:42:08.478Z,0.60
2023-01-03T01:44:56.086Z,0.60
2023-01-03T01:47:34.280Z,0.63
2023-01-03T01:50:22.410Z,0.50
2023-01-03T01:52:58.895Z,0.50
2023-01-03T01:55:31.956Z,0.80
2023-01-03T01:58:02.503Z,0.70
2023-01-03T02:00:32.118Z,0.60
2023-01-03T02:03:00.866Z,0.60
2023-01-03T02:05:31.514Z,0.70
2023-01-03T02:08:00.536Z,0.65
2023-01-03T02:10:52.601Z,0.70
2023-01-03T02:13:34.628Z,0.60
2023-01-03T02:16:26.059Z,0.43
2023-01-03T02:19:16.016Z,0.60
2023-01-03T02:22:15.834Z,0.60
2023-01-03T02:25:29.968Z,0.60
2023-01-03T02:28:41.269Z,0.60
2023-01-03T02:31:18.377Z,0.60
2023-01-03T02:34:00.646Z,0.57
2023-01-03T02:36:44.127Z,0.70
2023-01-03T02:39:24.014Z,0.50
2023-01-03T02:42:13.926Z,0.60
2023-01-03T02:44:55.145Z,0.55
2023-01-03T02:47:30.677Z,0.55
2023-01-03T02:50:04.266Z,0.60
2023-01-03T02:52:33.776Z,0.55
2023-01-03T02:55:07.892Z,0.60
2023-01-03T02:57:42.117Z,0.50
2023-01-03T03:00:16.049Z,0.80
2023-01-03T03:02:53.205Z,0.60
2023-01-03T03:05:29.298Z,0.60
2023-01-03T03:07:57.361Z,0.70
2023-01-03T03:10:44.671Z,0.57
2023-01-03T03:13:25.795Z,0.52
2023-01-03T03:16:01.234Z,0.60
2023-01-03T03:18:47.754Z,0.70
2023-01-03T03:21:38.772Z,0.57
2023-01-03T03:24:32.356Z,0.65
2023-01-03T03:27:24.556Z,0.70
2023-01-03T03:29:57.028Z,0.60
2023-01-03T03:32:29.257Z,0.70
2023-01-03T03:35:04.481Z,0.52
2023-01-03T03:37:36.670Z,0.70
2023-01-03T03:40:24.231Z,0.70
2023-01-03T03:43:19.770Z,0.50
2023-01-03T03:45:58.913Z,0.70
2023-01-03T03:48:57.075Z,0.60
2023-01-03T03:51:33.389Z,0.57
2023-01-03T03:54:08.326Z,0.50
2023-01-03T03:56:41.617Z,0.80
2023-01-03T03:59:12.282Z,0.70
2023-01-03T04:01:43.926Z,0.52
2023-01-03T04:04:23.540Z,0.52
2023-01-03T04:09:21.929Z,0.60
2023-01-03T04:11:49.959Z,0.50
2023-01-03T04:14:17.996Z,0.60
2023-01-03T04:16:45.998Z,0.70
2023-01-03T04:19:14.073Z,0.60
2023-01-03T04:21:42.018Z,0.60
2023-01-03T04:24:11.389Z,0.70
2023-01-03T04:26:39.384Z,0.70
2023-01-03T04:29:07.545Z,0.47
2023-01-03T04:31:35.809Z,0.60
2023-01-03T04:34:03.845Z,0.82
2023-01-03T04:36:31.887Z,0.60
2023-01-03T04:38:59.784Z,0.60
2023-01-03T04:41:29.105Z,0.60
2023-01-03T04:44:01.959Z,0.68
2023-01-03T04:46:32.142Z,0.73
2023-01-03T04:49:00.401Z,0.68
2023-01-03T04:51:29.232Z,0.60
2023-01-03T04:53:57.505Z,0.82
2023-01-03T04:56:29.435Z,0.70
2023-01-03T04:58:59.652Z,0.80
2023-01-03T05:01:27.912Z,0.70
2023-01-03T05:04:00.633Z,0.70
2023-01-03T05:06:29.883Z,0.60
2023-01-03T05:08:58.021Z,0.68
2023-01-03T05:11:25.986Z,0.60
2023-01-03T05:13:55.846Z,0.52
2023-01-03T05:16:23.871Z,0.50
2023-01-03T05:18:53.478Z,0.60
2023-01-03T05:24:29.327Z,0.60
2023-01-03T05:26:58.817Z,0.70
2023-01-03T05:29:31.024Z,0.52
2023-01-03T05:31:59.061Z,0.60
2023-01-03T05:34:27.137Z,0.70
2023-01-03T05:36:55.065Z,0.68
2023-01-03T05:39:23.054Z,0.65
2023-01-03T05:42:03.041Z,0.70
2023-01-03T05:44:34.574Z,0.80
2023-01-03T05:47:05.016Z,0.77
2023-01-03T05:49:34.273Z,0.60
2023-01-03T05:52:02.326Z,0.82
2023-01-03T05:54:30.371Z,0.60
2023-01-03T05:56:58.343Z,0.77
2023-01-03T05:59:27.113Z,0.70
2023-01-03T06:01:56.697Z,0.77
2023-01-03T06:06:53.017Z,0.60
2023-01-03T06:09:21.050Z,0.80
2023-01-03T06:11:49.059Z,0.70
2023-01-03T06:14:16.985Z,0.60
2023-01-03T06:17:02.563Z,0.90
2023-01-03T06:19:32.091Z,0.77
2023-01-03T06:22:00.117Z,0.80
2023-01-03T06:24:28.204Z,0.80
2023-01-03T06:26:58.660Z,0.60
2023-01-03T06:29:26.650Z,0.70
2023-01-03T06:31:54.655Z,0.77
2023-01-03T06:34:22.615Z,0.80
2023-01-03T06:36:51.954Z,0.85
2023-01-03T06:39:19.960Z,0.75
2023-01-03T06:41:47.938Z,0.73
2023-01-03T06:44:16.183Z,0.80
2023-01-03T06:47:01.736Z,0.75
2023-01-03T06:50:01.776Z,0.80
2023-01-03T06:52:48.994Z,0.80
2023-01-03T06:55:17.192Z,0.90
2023-01-03T06:57:45.184Z,0.70
2023-01-03T07:00:15.073Z,0.80
2023-01-03T07:02:43.119Z,0.90
2023-01-03T07:05:11.255Z,0.88
2023-01-03T07:07:40.575Z,0.70
2023-01-03T07:10:09.510Z,0.73
2023-01-03T07:12:55.208Z,0.70
2023-01-03T07:15:23.259Z,0.70
2023-01-03T07:17:51.301Z,0.80
2023-01-03T07:20:19.321Z,0.80
2023-01-03T07:22:48.682Z,0.65
2023-01-03T07:25:16.976Z,0.80
2023-01-03T07:27:45.097Z,0.93
2023-01-03T07:30:14.291Z,0.90
2023-01-03T07:32:42.356Z,1.13
2023-01-03T07:35:10.859Z,0.90
2023-01-03T07:37:38.793Z,0.80
2023-01-03T07:40:10.503Z,0.90
2023-01-03T07:42:55.888Z,0.70
2023-01-03T07:45:23.868Z,0.68
2023-01-03T07:47:52.907Z,0.80
2023-01-03T07:50:20.890Z,0.80
2023-01-03T07:52:48.837Z,0.70
2023-01-03T07:55:18.302Z,0.90
2023-01-03T07:57:46.276Z,0.80
2023-01-03T08:00:15.875Z,0.80
2023-01-03T08:05:11.921Z,0.60
2023-01-03T08:07:40.176Z,0.70
2023-01-03T08:10:27.278Z,0.70
2023-01-03T08:13:14.229Z,0.80
2023-01-03T08:15:45.261Z,0.70
2023-01-03T08:18:14.121Z,0.70
2023-01-03T08:20:42.761Z,0.93
2023-01-03T08:23:11.129Z,0.80
2023-01-03T08:25:40.003Z,0.80
2023-01-03T08:28:11.700Z,0.70
2023-01-03T08:30:44.394Z,0.70
2023-01-03T08:33:16.104Z,0.80
2023-01-03T08:35:50.329Z,0.70
2023-01-03T08:38:27.040Z,0.75
2023-01-03T08:40:56.603Z,0.60
2023-01-03T08:43:26.456Z,0.70
2023-01-03T08:45:54.490Z,0.80
2023-01-03T08:48:24.312Z,0.70
2023-01-03T08:50:52.549Z,0.70
2023-01-03T08:53:22.900Z,0.60
2023-01-03T08:55:50.895Z,0.55
2023-01-03T08:58:18.868Z,0.82
2023-01-03T09:00:48.295Z,0.80
2023-01-03T09:03:16.423Z,0.75
2023-01-03T09:05:44.549Z,0.60
2023-01-03T09:08:12.582Z,0.80
2023-01-03T09:10:47.178Z,0.80
2023-01-03T09:13:15.823Z,0.70
2023-01-03T09:15:43.968Z,0.80
2023-01-03T09:18:13.462Z,0.77
2023-01-03T09:20:41.560Z,0.60
2023-01-03T09:23:09.677Z,0.80
2023-01-03T09:25:37.826Z,0.75
2023-01-03T09:28:06.059Z,0.65
2023-01-03T09:30:34.140Z,0.70
2023-01-03T09:33:02.110Z,0.60
2023-01-03T09:35:31.861Z,0.70
2023-01-03T09:40:27.609Z,0.70
2023-01-03T09:43:13.221Z,0.60
2023-01-03T09:45:46.531Z,0.60
2023-01-03T09:48:18.576Z,0.80
2023-01-03T09:51:17.038Z,0.50
2023-01-03T09:53:59.508Z,0.70
2023-01-03T09:56:45.341Z,0.77
2023-01-03T09:59:35.589Z,0.60
2023-01-03T10:02:56.754Z,0.60
2023-01-03T10:05:56.682Z,0.65
2023-01-03T10:08:43.033Z,0.68
2023-01-03T10:11:22.809Z,0.63
2023-01-03T10:14:14.053Z,0.60
2023-01-03T10:16:55.018Z,0.70
2023-01-03T10:20:04.183Z,0.70
2023-01-03T10:22:35.275Z,0.60
2023-01-03T10:25:14.516Z,0.60
2023-01-03T10:27:48.411Z,0.80
2023-01-03T10:30:20.400Z,0.60
2023-01-03T10:33:18.937Z,0.57
2023-01-03T10:35:47.065Z,0.30
2023-01-03T10:38:17.731Z,0.68
2023-01-03T10:40:51.195Z,0.63
2023-01-03T10:43:27.966Z,0.73
2023-01-03T10:45:59.052Z,0.70
2023-01-03T10:48:52.606Z,0.60
2023-01-03T10:51:40.280Z,0.50
2023-01-03T10:54:25.979Z,0.70
2023-01-03T10:56:54.055Z,0.63
2023-01-03T10:59:26.068Z,0.73
2023-01-03T11:02:02.284Z,0.60
2023-01-03T11:04:32.637Z,0.68
2023-01-03T11:07:12.823Z,0.60
2023-01-03T11:09:51.674Z,0.70
2023-01-03T11:12:29.909Z,0.60
2023-01-03T11:15:01.109Z,0.60
2023-01-03T11:17:31.400Z,0.50
2023-01-03T11:19:59.497Z,0.70
2023-01-03T11:22:42.644Z,0.52
2023-01-03T11:25:40.026Z,0.60
2023-01-03T11:28:42.183Z,0.63
2023-01-03T11:31:21.782Z,0.60
2023-01-03T11:36:48.928Z,0.63
2023-01-03T11:39:49.729Z,0.50
2023-01-03T11:42:39.980Z,0.52
2023-01-03T11:45:48.184Z,0.70
2023-01-03T11:48:40.108Z,0.60
2023-01-03T11:51:19.905Z,0.57
2023-01-03T11:54:10.052Z,0.50
2023-01-03T11:56:44.218Z,0.50
2023-01-03T11:59:48.969Z,0.70
2023-01-03T12:03:05.147Z,0.70
2023-01-03T12:05:48.292Z,0.50
2023-01-03T12:08:54.519Z,0.70
2023-01-03T12:11:54.171Z,0.60
2023-01-03T12:17:04.567Z,0.60
2023-01-03T12:19:43.585Z,0.60
2023-01-03T12:22:23.658Z,0.70
2023-01-03T12:25:05.245Z,0.50
2023-01-03T12:27:39.456Z,0.50
2023-01-03T12:30:24.494Z,0.70
2023-01-03T12:33:01.133Z,0.55
2023-01-03T12:35:41.077Z,0.70
2023-01-03T12:38:13.213Z,0.70
2023-01-03T12:40:53.786Z,0.60
2023-01-03T12:43:32.925Z,0.60
2023-01-03T12:46:12.942Z,0.60
2023-01-03T12:48:55.981Z,0.68
2023-01-03T12:51:28.074Z,0.60
2023-01-03T12:54:16.488Z,0.57
2023-01-03T12:57:33.676Z,0.70
2023-01-03T13:00:26.543Z,0.60
2023-01-03T13:03:00.759Z,0.50
2023-01-03T13:05:41.263Z,0.52
2023-01-03T13:08:28.726Z,0.60
2023-01-03T13:11:04.068Z,0.50
2023-01-03T13:13:34.311Z,0.50
2023-01-03T13:16:47.172Z,0.50
2023-01-03T13:19:55.354Z,0.70
2023-01-03T13:22:52.172Z,0.52
2023-01-03T13:25:41.564Z,0.60
2023-01-03T13:28:33.099Z,0.60
2023-01-03T13:31:46.537Z,0.47
2023-01-03T13:34:33.926Z,0.63
2023-01-03T13:37:19.572Z,0.70
2023-01-03T13:40:39.268Z,0.70
2023-01-03T13:43:21.543Z,0.73
2023-01-03T13:46:20.662Z,0.60
2023-01-03T13:48:59.843Z,0.60
2023-01-03T13:51:50.347Z,0.60
2023-01-03T13:54:53.163Z,0.55
2023-01-03T13:57:39.581Z,0.50
2023-01-03T14:00:20.887Z,0.50
2023-01-03T14:03:21.929Z,0.63
2023-01-03T14:06:40.003Z,0.50
2023-01-03T14:09:38.610Z,0.50
2023-01-03T14:13:10.731Z,0.52
2023-01-03T14:15:38.907Z,0.55
2023-01-03T14:18:22.330Z,0.50
2023-01-03T14:20:54.336Z,0.60
2023-01-03T14:23:59.067Z,0.60
2023-01-03T14:26:18.796Z,0.60
2023-01-03T14:28:52.986Z,0.80
2023-01-03T14:31:27.008Z,0.65
2023-01-03T14:33:59.490Z,0.70
2023-01-03T14:36:28.515Z,0.70
2023-01-03T14:38:58.881Z,0.63
2023-01-03T14:41:31.904Z,0.63
2023-01-03T14:44:04.759Z,0.75
2023-01-03T14:46:34.066Z,0.40
2023-01-03T14:49:08.099Z,0.60
2023-01-03T14:51:38.481Z,0.80
2023-01-03T14:54:07.304Z,1.20
2023-01-03T14:56:35.574Z,0.80
2023-01-03T14:59:10.947Z,0.68
2023-01-03T15:01:39.665Z,0.60
2023-01-03T15:04:08.376Z,0.60
2023-01-03T15:06:37.292Z,0.70
2023-01-03T15:09:22.388Z,0.80
2023-01-03T15:11:59.501Z,0.70
2023-01-03T15:14:31.893Z,0.70
2023-01-03T15:17:07.984Z,0.50
2023-01-03T15:19:40.585Z,0.70
2023-01-03T15:22:16.314Z,0.68
2023-01-03T15:24:47.416Z,0.60
2023-01-03T15:27:43.774Z,0.90
2023-01-03T15:30:24.699Z,0.80
2023-01-03T15:33:05.121Z,0.70
2023-01-03T15:35:38.811Z,0.65
2023-01-03T15:38:18.099Z,0.75
2023-01-03T15:40:50.430Z,0.60
2023-01-03T15:43:25.199Z,0.90
2023-01-03T15:46:04.452Z,0.90
2023-01-03T15:51:30.682Z,0.60
2023-01-03T15:53:58.711Z,0.80
2023-01-03T15:56:35.469Z,0.90
2023-01-03T15:59:09.462Z,0.60
2023-01-03T16:01:37.643Z,0.90
2023-01-03T16:04:06.187Z,0.90
2023-01-03T16:06:35.564Z,0.85
2023-01-03T16:09:03.593Z,0.73
2023-01-03T16:11:34.612Z,0.77
2023-01-03T16:14:06.650Z,0.80
2023-01-03T16:16:39.325Z,0.80
2023-01-03T16:19:08.988Z,0.90
2023-01-03T16:24:06.766Z,0.80
2023-01-03T16:26:34.709Z,0.73
2023-01-03T16:29:02.705Z,0.90
2023-01-03T16:31:34.218Z,0.85
2023-01-03T16:34:05.320Z,0.73
2023-01-03T16:36:37.333Z,0.70
2023-01-03T16:39:15.032Z,0.80
2023-01-03T16:41:43.485Z,0.95
2023-01-03T16:44:11.423Z,0.95
2023-01-03T16:46:40.706Z,0.80
2023-01-03T16:49:11.465Z,2.97
2023-01-03T16:51:57.130Z,2.83
2023-01-03T16:54:27.024Z,2.05
2023-01-03T16:56:54.994Z,1.45
2023-01-03T16:59:24.351Z,1.40
2023-01-03T17:01:52.422Z,1.90
2023-01-03T17:04:20.483Z,1.20
2023-01-03T17:06:48.537Z,0.90
2023-01-03T17:09:20.680Z,0.98
2023-01-03T17:11:50.464Z,0.75
2023-01-03T17:14:21.881Z,0.63
2023-01-03T17:16:51.419Z,0.90
2023-01-03T17:20:02.640Z,1.10
2023-01-03T17:22:16.099Z,0.70
2023-01-03T17:24:45.045Z,0.75
2023-01-03T17:27:19.895Z,0.70
2023-01-03T17:29:51.265Z,0.88
2023-01-03T17:32:22.968Z,0.95
2023-01-03T17:34:50.920Z,0.80
2023-01-03T17:37:22.965Z,0.70
2023-01-03T17:39:57.052Z,0.65
2023-01-03T17:42:29.085Z,0.88
2023-01-03T17:45:14.727Z,0.90
2023-01-03T17:48:02.902Z,0.90
2023-01-03T17:50:33.290Z,0.95
2023-01-03T17:53:02.949Z,1.20
2023-01-03T17:58:04.919Z,1.03
2023-01-03T18:00:34.253Z,1.20
2023-01-03T18:03:02.522Z,1.10
2023-01-03T18:05:31.357Z,0.90
2023-01-03T18:08:03.739Z,1.27
2023-01-03T18:10:43.758Z,1.20
2023-01-03T18:13:24.998Z,1.00
2023-01-03T18:16:00.036Z,0.85
2023-01-03T18:18:30.184Z,0.80
2023-01-03T18:20:59.037Z,1.02
2023-01-03T18:23:35.961Z,1.02
2023-01-03T18:26:07.816Z,1.10
2023-01-03T18:28:40.633Z,1.00
2023-01-03T18:31:15.375Z,0.98
2023-01-03T18:33:43.721Z,0.90
2023-01-03T18:36:28.707Z,0.60
2023-01-03T18:39:03.100Z,0.98
2023-01-03T18:41:34.123Z,0.90
2023-01-03T18:44:03.632Z,0.80
2023-01-03T18:46:31.639Z,1.00
2023-01-03T18:48:59.757Z,0.80
2023-01-03T18:51:30.291Z,0.95
2023-01-03T18:54:00.679Z,0.80
2023-01-03T18:56:33.391Z,0.90
2023-01-03T18:59:07.710Z,0.88
2023-01-03T19:01:36.056Z,1.05
2023-01-03T19:04:04.403Z,1.05
2023-01-03T19:06:33.856Z,1.00
2023-01-03T19:11:39.020Z,0.90
2023-01-03T19:14:08.958Z,0.90
2023-01-03T19:16:39.214Z,0.93
2023-01-03T19:19:08.744Z,0.80
2023-01-03T19:21:41.142Z,0.88
2023-01-03T19:24:23.669Z,0.90
2023-01-03T19:26:57.265Z,1.00
2023-01-03T19:29:36.829Z,0.88
2023-01-03T19:34:36.345Z,0.80
2023-01-03T19:37:04.413Z,0.85
2023-01-03T19:39:37.361Z,0.90
2023-01-03T19:42:30.321Z,0.90
2023-01-03T19:45:02.107Z,0.70
2023-01-03T19:47:30.159Z,1.00
2023-01-03T19:50:07.744Z,0.80
2023-01-03T19:52:37.653Z,0.80
2023-01-03T19:55:06.925Z,0.82
2023-01-03T19:57:35.938Z,0.80
2023-01-03T20:00:07.878Z,0.93
2023-01-03T20:02:40.877Z,0.80
2023-01-03T20:05:17.963Z,0.70
2023-01-03T20:07:47.332Z,1.00
2023-01-03T20:10:18.666Z,1.00
2023-01-03T20:12:48.984Z,0.90
2023-01-03T20:15:23.138Z,0.80
2023-01-03T20:17:51.617Z,0.80
2023-01-03T20:20:21.525Z,0.90
2023-01-03T20:23:04.639Z,0.80
2023-01-03T20:25:36.939Z,0.90
2023-01-03T20:28:06.431Z,0.90
2023-01-03T20:30:36.056Z,0.90
2023-01-03T20:38:25.240Z,0.80
2023-01-03T20:40:53.851Z,0.77
2023-01-03T20:43:22.528Z,0.80
2023-01-03T20:45:56.254Z,0.82
2023-01-03T20:48:26.358Z,0.93
2023-01-03T20:50:55.098Z,0.90
2023-01-03T20:53:26.282Z,1.00
2023-01-03T20:55:55.326Z,1.02
2023-01-03T20:58:26.117Z,0.73
2023-01-03T21:01:04.188Z,0.95
2023-01-03T21:03:33.667Z,0.70
2023-01-03T21:06:02.011Z,0.90
2023-01-03T21:08:48.056Z,0.90
2023-01-03T21:11:16.202Z,0.80
2023-01-03T21:13:44.267Z,0.80
2023-01-03T21:16:28.026Z,0.70
2023-01-03T21:19:02.093Z,0.70
2023-01-03T21:21:32.371Z,0.70
2023-01-03T21:24:00.608Z,0.75
2023-01-03T21:26:29.188Z,0.73
2023-01-03T21:28:57.940Z,0.60
2023-01-03T21:31:28.343Z,0.70
2023-01-03T21:33:56.800Z,0.70
2023-01-03T21:36:30.368Z,0.82
2023-01-03T21:39:00.377Z,0.70
2023-01-03T21:41:31.485Z,0.80
2023-01-03T21:44:01.680Z,0.80
2023-01-03T21:46:31.933Z,0.60
2023-01-03T21:49:00.274Z,0.60
2023-01-03T21:51:38.317Z,0.80
2023-01-03T21:54:07.769Z,0.80
2023-01-03T21:56:44.786Z,0.80
2023-01-03T21:59:13.548Z,0.60
2023-01-03T22:02:01.702Z,0.80
2023-01-03T22:04:29.939Z,0.85
2023-01-03T22:07:00.671Z,0.68
2023-01-03T22:09:47.255Z,0.52
2023-01-03T22:12:16.366Z,0.60
2023-01-03T22:14:45.233Z,0.70
2023-01-03T22:17:15.772Z,0.80
2023-01-03T22:19:43.866Z,0.70
2023-01-03T22:22:11.993Z,0.80
2023-01-03T22:24:40.021Z,0.60
2023-01-03T22:27:08.323Z,0.77
2023-01-03T22:29:36.362Z,0.70
2023-01-03T22:32:04.654Z,0.70
2023-01-03T22:34:34.021Z,0.57
2023-01-03T22:37:02.006Z,0.77
2023-01-03T22:39:29.999Z,0.60
2023-01-03T22:41:58.548Z,0.60
2023-01-03T22:44:26.575Z,0.90
2023-01-03T22:46:54.564Z,0.60
2023-01-03T22:49:22.522Z,0.80
2023-01-03T22:51:51.913Z,0.80
2023-01-03T22:54:20.083Z,0.60
2023-01-03T22:56:48.217Z,0.50
2023-01-03T22:59:16.398Z,0.70
2023-01-03T23:01:44.539Z,0.80
2023-01-03T23:04:13.149Z,0.90
2023-01-03T23:06:41.393Z,0.70
2023-01-03T23:09:12.663Z,0.60
2023-01-03T23:11:59.256Z,0.85
2023-01-03T23:14:28.499Z,0.80
2023-01-03T23:16:56.850Z,0.60
2023-01-03T23:19:27.981Z,0.70
2023-01-03T23:21:58.201Z,0.68
2023-01-03T23:24:27.582Z,0.82
2023-01-03T23:26:55.831Z,0.70
2023-01-03T23:29:24.087Z,0.80
2023-01-03T23:31:52.701Z,0.90
2023-01-03T23:34:21.036Z,0.80
2023-01-03T23:36:49.657Z,0.77
2023-01-03T23:39:19.732Z,0.82
2023-01-03T23:41:50.387Z,0.90
2023-01-03T23:44:18.439Z,0.93
2023-01-03T23:46:46.394Z,1.00
2023-01-03T23:49:16.219Z,0.80
2023-01-03T23:51:44.257Z,0.85
2023-01-03T23:54:12.322Z,0.85
2023-01-03T23:56:40.281Z,0.90
2023-01-03T23:59:09.536Z,0.80
